This is the latest recevied weather packets stored in our database for station/object WA1NHP. If no packets are shown the sender has not sent any weather packets the latest 10 day(s).
| Time | Temp. | Humidity | Pressure | Rain* | Wind** | Luminosity | Snow |
|---|---|---|---|---|---|---|---|
| 1788630245 | 21.11° C | 78% | 1023.9 hPa | 0 mm | - | 114 W/m² | - |
| 1788629644 | 22.22° C | 73% | 1023.9 hPa | 0 mm | - | 200 W/m² | - |
| 1788629044 | 21.67° C | 72% | 1023.9 hPa | 0 mm | - | 1158 W/m² | - |
| 1788628444 | 20.56° C | 75% | 1023.9 hPa | 0 mm | - | 253 W/m² | - |
| 1788627845 | 20.56° C | 75% | 1023.9 hPa | 0 mm | - | 241 W/m² | - |
| 1788627245 | 20.56° C | 79% | 1023.9 hPa | 0 mm | - | 267 W/m² | - |
| 1788626644 | 20.56° C | 79% | 1023.9 hPa | 0 mm | - | 454 W/m² | - |
| 1788626044 | 20.56° C | 77% | 1023.9 hPa | 0 mm | - | 251 W/m² | - |
| 1788625444 | 20° C | 78% | 1023.9 hPa | 0 mm | - | 302 W/m² | - |
| 1788624844 | 20.56° C | 76% | 1023.9 hPa | 0 mm | - | 199 W/m² | - |
| 1788624244 | 20° C | 77% | 1023.9 hPa | 0 mm | - | 429 W/m² | - |
| 1788623644 | 20° C | 79% | 1023.9 hPa | 0 mm | - | 243 W/m² | - |
| 1788623044 | 20.56° C | 78% | 1023.9 hPa | 0 mm | - | 251 W/m² | - |
| 1788622444 | 20.56° C | 77% | 1023.9 hPa | 0 mm | - | 371 W/m² | - |
| 1788621844 | 21.11° C | 79% | 1023.9 hPa | 0 mm | - | 953 W/m² | - |
| 1788621245 | 20.56° C | 77% | 1023.9 hPa | 0 mm | - | 874 W/m² | - |
| 1788620644 | 21.11° C | 78% | 1023.9 hPa | 0 mm | - | 921 W/m² | - |
| 1788620044 | 20.56° C | 80% | 1023.9 hPa | 0 mm | - | 940 W/m² | - |
| 1788619445 | 20° C | 80% | 1023.9 hPa | 0 mm | - | 840 W/m² | - |
| 1788618844 | 19.44° C | 83% | 1023.9 hPa | 0 mm | - | 766 W/m² | - |
| 1788618244 | 19.44° C | 83% | 1023.9 hPa | 0 mm | - | 817 W/m² | - |
| 1788617644 | 18.89° C | 84% | 1023.9 hPa | 0 mm | - | 169 W/m² | - |
| 1788617045 | 18.89° C | 83% | 1023.9 hPa | 0 mm | - | 137 W/m² | - |
| 1788616444 | 18.33° C | 85% | 1023.9 hPa | 0 mm | - | 158 W/m² | - |
| 1788615844 | 17.78° C | 87% | 1023.9 hPa | 0 mm | - | 114 W/m² | - |
* Rain latest hour (hover to see other rain measurements)
** Current wind speed in m/s (hover to see current wind gust speed)